sensor_id;sensor_type;location;lat;lon;timestamp;pressure;altitude;pressure_sealevel;temperature;humidity
68988;BME280;56038;46.080;11.116;2023-05-11T00:03:52;99019.00;;;11.73;100.00
68988;BME280;56038;46.080;11.116;2023-05-11T00:08:55;99012.25;;;11.68;100.00
68988;BME280;56038;46.080;11.116;2023-05-11T00:13:56;99007.69;;;11.72;100.00
68988;BME280;56038;46.080;11.116;2023-05-11T00:18:59;99002.63;;;11.69;100.00
68988;BME280;56038;46.080;11.116;2023-05-11T00:24:01;98999.53;;;11.61;99.58
68988;BME280;56038;46.080;11.116;2023-05-11T00:29:03;98991.75;;;11.59;99.74
68988;BME280;56038;46.080;11.116;2023-05-11T00:34:06;98992.13;;;11.52;99.46
68988;BME280;56038;46.080;11.116;2023-05-11T00:39:08;98981.97;;;11.46;100.00
68988;BME280;56038;46.080;11.116;2023-05-11T00:44:11;98980.44;;;11.42;100.00
68988;BME280;56038;46.080;11.116;2023-05-11T00:49:14;98975.22;;;11.42;100.00
68988;BME280;56038;46.080;11.116;2023-05-11T00:54:17;98968.22;;;11.42;99.70
68988;BME280;56038;46.080;11.116;2023-05-11T00:59:18;98969.06;;;11.43;100.00
68988;BME280;56038;46.080;11.116;2023-05-11T01:04:22;98974.63;;;11.36;99.66
68988;BME280;56038;46.080;11.116;2023-05-11T01:09:33;98975.31;;;11.40;99.80
68988;BME280;56038;46.080;11.116;2023-05-11T01:14:43;98969.66;;;11.30;100.00
68988;BME280;56038;46.080;11.116;2023-05-11T01:19:50;98965.38;;;11.29;100.00
68988;BME280;56038;46.080;11.116;2023-05-11T01:25:05;98974.13;;;11.28;100.00
68988;BME280;56038;46.080;11.116;2023-05-11T01:30:37;98962.81;;;11.28;100.00
68988;BME280;56038;46.080;11.116;2023-05-11T01:35:47;98969.06;;;11.25;100.00
68988;BME280;56038;46.080;11.116;2023-05-11T01:40:54;98967.97;;;11.29;100.00
68988;BME280;56038;46.080;11.116;2023-05-11T01:45:59;98973.06;;;11.32;100.00
68988;BME280;56038;46.080;11.116;2023-05-11T01:51:02;98963.50;;;11.31;99.99
68988;BME280;56038;46.080;11.116;2023-05-11T01:56:06;98967.81;;;11.32;99.68
68988;BME280;56038;46.080;11.116;2023-05-11T02:01:10;98966.44;;;11.25;99.96
68988;BME280;56038;46.080;11.116;2023-05-11T02:06:21;98965.59;;;11.25;99.64
68988;BME280;56038;46.080;11.116;2023-05-11T02:11:28;98972.59;;;11.24;99.57
68988;BME280;56038;46.080;11.116;2023-05-11T02:16:33;98961.28;;;11.24;99.37
68988;BME280;56038;46.080;11.116;2023-05-11T02:21:36;98958.13;;;11.17;98.84
68988;BME280;56038;46.080;11.116;2023-05-11T02:26:38;98962.72;;;11.12;99.09
68988;BME280;56038;46.080;11.116;2023-05-11T02:31:44;98955.13;;;11.07;99.38
68988;BME280;56038;46.080;11.116;2023-05-11T02:36:47;98958.66;;;11.06;99.21
68988;BME280;56038;46.080;11.116;2023-05-11T02:41:55;98962.97;;;11.07;99.25
68988;BME280;56038;46.080;11.116;2023-05-11T02:46:59;98952.59;;;11.06;99.19
68988;BME280;56038;46.080;11.116;2023-05-11T02:52:03;98954.19;;;11.08;99.38
68988;BME280;56038;46.080;11.116;2023-05-11T02:57:06;98944.75;;;11.06;99.40
68988;BME280;56038;46.080;11.116;2023-05-11T03:02:09;98949.34;;;11.01;99.29
68988;BME280;56038;46.080;11.116;2023-05-11T03:07:11;98949.56;;;10.96;99.56
68988;BME280;56038;46.080;11.116;2023-05-11T03:12:13;98935.50;;;10.99;99.51
68988;BME280;56038;46.080;11.116;2023-05-11T03:17:18;98927.38;;;11.05;99.49
68988;BME280;56038;46.080;11.116;2023-05-11T03:22:21;98930.13;;;11.02;99.24
68988;BME280;56038;46.080;11.116;2023-05-11T03:27:24;98920.59;;;11.01;98.87
68988;BME280;56038;46.080;11.116;2023-05-11T03:32:28;98915.28;;;11.02;98.87
68988;BME280;56038;46.080;11.116;2023-05-11T03:37:30;98910.78;;;11.06;99.27
68988;BME280;56038;46.080;11.116;2023-05-11T03:42:34;98915.91;;;11.07;99.34
68988;BME280;56038;46.080;11.116;2023-05-11T03:47:38;98908.44;;;11.00;99.09
68988;BME280;56038;46.080;11.116;2023-05-11T03:52:41;98905.22;;;10.95;99.61
68988;BME280;56038;46.080;11.116;2023-05-11T03:57:44;98913.22;;;10.92;98.89
68988;BME280;56038;46.080;11.116;2023-05-11T04:02:47;98910.72;;;10.89;99.11
68988;BME280;56038;46.080;11.116;2023-05-11T04:07:49;98909.25;;;10.83;98.95
68988;BME280;56038;46.080;11.116;2023-05-11T04:12:53;98911.13;;;10.81;99.02
68988;BME280;56038;46.080;11.116;2023-05-11T04:17:56;98916.41;;;10.79;98.58
68988;BME280;56038;46.080;11.116;2023-05-11T04:22:58;98911.34;;;10.76;99.30
68988;BME280;56038;46.080;11.116;2023-05-11T04:28:00;98912.53;;;10.69;99.53
68988;BME280;56038;46.080;11.116;2023-05-11T04:33:03;98910.22;;;10.63;99.63
68988;BME280;56038;46.080;11.116;2023-05-11T04:38:05;98916.22;;;10.65;99.87
68988;BME280;56038;46.080;11.116;2023-05-11T04:43:07;98915.47;;;10.63;99.98
68988;BME280;56038;46.080;11.116;2023-05-11T04:48:10;98910.38;;;10.60;99.62
68988;BME280;56038;46.080;11.116;2023-05-11T04:53:11;98920.91;;;10.59;99.41
68988;BME280;56038;46.080;11.116;2023-05-11T04:58:13;98921.81;;;10.58;99.44
68988;BME280;56038;46.080;11.116;2023-05-11T05:03:16;98925.13;;;10.61;99.01
68988;BME280;56038;46.080;11.116;2023-05-11T05:08:18;98923.53;;;10.59;98.99
68988;BME280;56038;46.080;11.116;2023-05-11T05:13:20;98924.97;;;10.64;98.19
68988;BME280;56038;46.080;11.116;2023-05-11T05:18:23;98932.50;;;10.70;98.49
68988;BME280;56038;46.080;11.116;2023-05-11T05:23:25;98923.75;;;10.71;98.82
68988;BME280;56038;46.080;11.116;2023-05-11T05:28:27;98928.13;;;10.71;98.54
68988;BME280;56038;46.080;11.116;2023-05-11T05:33:30;98921.94;;;10.73;98.10
68988;BME280;56038;46.080;11.116;2023-05-11T05:38:31;98922.06;;;10.70;98.60
68988;BME280;56038;46.080;11.116;2023-05-11T05:43:33;98916.84;;;10.70;98.39
68988;BME280;56038;46.080;11.116;2023-05-11T05:48:36;98917.00;;;10.67;98.69
68988;BME280;56038;46.080;11.116;2023-05-11T05:53:38;98913.47;;;10.68;98.28
68988;BME280;56038;46.080;11.116;2023-05-11T05:58:39;98917.00;;;10.67;97.88
68988;BME280;56038;46.080;11.116;2023-05-11T06:03:43;98923.13;;;10.66;98.54
68988;BME280;56038;46.080;11.116;2023-05-11T06:08:45;98919.59;;;10.67;98.06
68988;BME280;56038;46.080;11.116;2023-05-11T06:13:47;98918.69;;;10.68;97.84
68988;BME280;56038;46.080;11.116;2023-05-11T06:18:50;98911.63;;;10.70;97.73
68988;BME280;56038;46.080;11.116;2023-05-11T06:23:51;98919.25;;;10.75;97.37
68988;BME280;56038;46.080;11.116;2023-05-11T06:28:53;98915.34;;;10.84;96.53
68988;BME280;56038;46.080;11.116;2023-05-11T06:33:56;98916.88;;;10.88;96.49
68988;BME280;56038;46.080;11.116;2023-05-11T06:38:58;98907.84;;;11.12;97.25
68988;BME280;56038;46.080;11.116;2023-05-11T06:43:59;98910.16;;;12.19;97.82
68988;BME280;56038;46.080;11.116;2023-05-11T06:49:02;98910.75;;;12.24;92.46
68988;BME280;56038;46.080;11.116;2023-05-11T06:54:04;98901.72;;;11.81;92.48
68988;BME280;56038;46.080;11.116;2023-05-11T06:59:06;98912.44;;;11.59;92.99
68988;BME280;56038;46.080;11.116;2023-05-11T07:04:09;98912.22;;;11.46;93.10
68988;BME280;56038;46.080;11.116;2023-05-11T07:09:11;98910.69;;;11.42;92.75
68988;BME280;56038;46.080;11.116;2023-05-11T07:14:12;98910.78;;;11.40;92.93
68988;BME280;56038;46.080;11.116;2023-05-11T07:19:15;98920.75;;;11.32;92.17
68988;BME280;56038;46.080;11.116;2023-05-11T07:24:17;98920.91;;;11.29;93.12
68988;BME280;56038;46.080;11.116;2023-05-11T07:29:19;98921.84;;;11.28;92.83
68988;BME280;56038;46.080;11.116;2023-05-11T07:34:22;98937.38;;;11.31;92.76
68988;BME280;56038;46.080;11.116;2023-05-11T07:39:23;98926.81;;;11.33;92.72
68988;BME280;56038;46.080;11.116;2023-05-11T07:44:25;98924.00;;;11.37;92.80
68988;BME280;56038;46.080;11.116;2023-05-11T07:49:29;98916.06;;;11.39;92.51
68988;BME280;56038;46.080;11.116;2023-05-11T07:54:31;98919.28;;;11.44;92.13
68988;BME280;56038;46.080;11.116;2023-05-11T07:59:33;98913.91;;;11.47;91.96
68988;BME280;56038;46.080;11.116;2023-05-11T08:04:36;98916.34;;;11.50;91.25
68988;BME280;56038;46.080;11.116;2023-05-11T08:09:38;98917.38;;;11.48;90.99
68988;BME280;56038;46.080;11.116;2023-05-11T08:14:40;98916.16;;;11.55;91.43
68988;BME280;56038;46.080;11.116;2023-05-11T08:19:44;98906.44;;;11.57;91.46
68988;BME280;56038;46.080;11.116;2023-05-11T08:24:45;98906.13;;;11.63;90.94
68988;BME280;56038;46.080;11.116;2023-05-11T08:29:47;98905.94;;;11.66;90.71
68988;BME280;56038;46.080;11.116;2023-05-11T08:34:50;98903.03;;;11.72;91.07
68988;BME280;56038;46.080;11.116;2023-05-11T08:39:52;98895.56;;;11.82;90.96
68988;BME280;56038;46.080;11.116;2023-05-11T08:44:54;98893.47;;;11.88;90.08
68988;BME280;56038;46.080;11.116;2023-05-11T08:49:58;98892.13;;;11.97;90.32
68988;BME280;56038;46.080;11.116;2023-05-11T08:55:00;98890.88;;;12.04;89.87
68988;BME280;56038;46.080;11.116;2023-05-11T09:00:02;98882.44;;;12.15;89.65
68988;BME280;56038;46.080;11.116;2023-05-11T09:05:07;98887.09;;;12.25;88.71
68988;BME280;56038;46.080;11.116;2023-05-11T09:10:09;98877.16;;;12.32;87.67
68988;BME280;56038;46.080;11.116;2023-05-11T09:15:11;98879.06;;;12.28;87.72
68988;BME280;56038;46.080;11.116;2023-05-11T09:20:14;98883.38;;;12.29;87.11
68988;BME280;56038;46.080;11.116;2023-05-11T09:25:16;98882.13;;;12.37;87.21
68988;BME280;56038;46.080;11.116;2023-05-11T09:30:19;98876.78;;;12.54;86.97
68988;BME280;56038;46.080;11.116;2023-05-11T09:35:24;98879.81;;;12.62;86.59
68988;BME280;56038;46.080;11.116;2023-05-11T09:40:26;98871.34;;;12.73;85.97
68988;BME280;56038;46.080;11.116;2023-05-11T09:45:35;98865.94;;;12.76;84.49
68988;BME280;56038;46.080;11.116;2023-05-11T09:50:38;98867.19;;;12.84;84.83
68988;BME280;56038;46.080;11.116;2023-05-11T09:55:49;98852.88;;;12.90;84.09
68988;BME280;56038;46.080;11.116;2023-05-11T10:00:52;98849.56;;;13.02;83.78
68988;BME280;56038;46.080;11.116;2023-05-11T10:06:03;98853.50;;;13.09;83.21
68988;BME280;56038;46.080;11.116;2023-05-11T10:11:06;98854.25;;;13.27;83.67
68988;BME280;56038;46.080;11.116;2023-05-11T10:16:08;98843.75;;;13.56;83.90
68988;BME280;56038;46.080;11.116;2023-05-11T10:21:15;98835.97;;;13.97;81.41
68988;BME280;56038;46.080;11.116;2023-05-11T10:26:17;98836.94;;;13.67;79.85
68988;BME280;56038;46.080;11.116;2023-05-11T10:31:19;98828.69;;;13.73;80.73
68988;BME280;56038;46.080;11.116;2023-05-11T10:36:24;98835.25;;;13.81;80.95
68988;BME280;56038;46.080;11.116;2023-05-11T10:41:38;98826.44;;;13.67;80.43
68988;BME280;56038;46.080;11.116;2023-05-11T10:46:54;98825.88;;;13.76;80.69
68988;BME280;56038;46.080;11.116;2023-05-11T10:52:22;98820.53;;;13.92;79.89
68988;BME280;56038;46.080;11.116;2023-05-11T10:57:48;98811.91;;;13.90;78.18
68988;BME280;56038;46.080;11.116;2023-05-11T11:02:56;98800.69;;;14.01;79.82
68988;BME280;56038;46.080;11.116;2023-05-11T11:08:00;98795.25;;;14.04;78.59
68988;BME280;56038;46.080;11.116;2023-05-11T11:13:04;98792.84;;;14.28;78.69
68988;BME280;56038;46.080;11.116;2023-05-11T11:18:19;98785.00;;;14.55;78.62
68988;BME280;56038;46.080;11.116;2023-05-11T11:23:45;98787.56;;;14.69;75.17
68988;BME280;56038;46.080;11.116;2023-05-11T11:29:06;98783.06;;;14.84;74.22
68988;BME280;56038;46.080;11.116;2023-05-11T11:34:33;98769.19;;;14.94;74.55
68988;BME280;56038;46.080;11.116;2023-05-11T11:39:50;98771.22;;;15.16;73.88
68988;BME280;56038;46.080;11.116;2023-05-11T11:45:27;98772.16;;;15.03;72.56
68988;BME280;56038;46.080;11.116;2023-05-11T11:50:29;98765.09;;;15.03;75.08
68988;BME280;56038;46.080;11.116;2023-05-11T11:55:46;98761.50;;;15.29;73.46
68988;BME280;56038;46.080;11.116;2023-05-11T12:00:48;98763.53;;;15.64;74.73
68988;BME280;56038;46.080;11.116;2023-05-11T12:06:03;98755.16;;;15.83;72.10
68988;BME280;56038;46.080;11.116;2023-05-11T12:11:08;98755.00;;;15.97;72.94
68988;BME280;56038;46.080;11.116;2023-05-11T12:16:11;98749.91;;;15.83;72.69
68988;BME280;56038;46.080;11.116;2023-05-11T12:21:18;98753.31;;;15.60;72.21
68988;BME280;56038;46.080;11.116;2023-05-11T12:26:23;98750.75;;;15.58;73.08
68988;BME280;56038;46.080;11.116;2023-05-11T12:31:25;98742.97;;;15.56;69.23
68988;BME280;56038;46.080;11.116;2023-05-11T12:36:27;98742.97;;;15.56;71.80
68988;BME280;56038;46.080;11.116;2023-05-11T12:41:32;98735.53;;;15.63;71.24
68988;BME280;56038;46.080;11.116;2023-05-11T12:46:34;98739.50;;;15.56;70.94
68988;BME280;56038;46.080;11.116;2023-05-11T12:51:47;98728.22;;;15.54;71.06
68988;BME280;56038;46.080;11.116;2023-05-11T12:56:50;98727.28;;;15.42;72.37
68988;BME280;56038;46.080;11.116;2023-05-11T13:01:52;98729.09;;;15.42;72.47
68988;BME280;56038;46.080;11.116;2023-05-11T13:06:54;98720.13;;;15.44;72.10
68988;BME280;56038;46.080;11.116;2023-05-11T13:12:12;98724.66;;;15.55;71.15
68988;BME280;56038;46.080;11.116;2023-05-11T13:17:28;98714.97;;;15.55;70.42
68988;BME280;56038;46.080;11.116;2023-05-11T13:22:30;98711.38;;;15.56;71.06
68988;BME280;56038;46.080;11.116;2023-05-11T13:27:33;98707.41;;;15.64;71.16
68988;BME280;56038;46.080;11.116;2023-05-11T13:32:36;98705.28;;;15.69;70.48
68988;BME280;56038;46.080;11.116;2023-05-11T13:37:38;98709.69;;;15.68;70.79
68988;BME280;56038;46.080;11.116;2023-05-11T13:42:41;98704.31;;;15.70;70.62
68988;BME280;56038;46.080;11.116;2023-05-11T13:47:43;98700.34;;;15.88;70.67
68988;BME280;56038;46.080;11.116;2023-05-11T13:52:45;98692.91;;;16.06;70.23
68988;BME280;56038;46.080;11.116;2023-05-11T13:57:48;98690.81;;;16.22;70.14
68988;BME280;56038;46.080;11.116;2023-05-11T14:02:50;98691.94;;;16.31;69.30
68988;BME280;56038;46.080;11.116;2023-05-11T14:07:52;98681.84;;;16.25;68.78
68988;BME280;56038;46.080;11.116;2023-05-11T14:12:55;98683.91;;;16.32;68.81
68988;BME280;56038;46.080;11.116;2023-05-11T14:17:57;98671.81;;;16.41;68.98
68988;BME280;56038;46.080;11.116;2023-05-11T14:22:59;98679.53;;;16.55;67.75
68988;BME280;56038;46.080;11.116;2023-05-11T14:28:02;98674.09;;;16.69;66.04
68988;BME280;56038;46.080;11.116;2023-05-11T14:33:04;98682.22;;;16.66;64.08
68988;BME280;56038;46.080;11.116;2023-05-11T14:38:06;98684.97;;;16.65;64.53
68988;BME280;56038;46.080;11.116;2023-05-11T14:43:09;98680.28;;;16.57;61.32
68988;BME280;56038;46.080;11.116;2023-05-11T14:48:11;98691.75;;;16.56;63.76
68988;BME280;56038;46.080;11.116;2023-05-11T14:53:40;98704.88;;;16.34;59.42
68988;BME280;56038;46.080;11.116;2023-05-11T14:58:43;98706.00;;;16.18;63.62
68988;BME280;56038;46.080;11.116;2023-05-11T15:03:46;98699.66;;;16.10;63.27
68988;BME280;56038;46.080;11.116;2023-05-11T15:08:48;98703.22;;;16.09;63.11
68988;BME280;56038;46.080;11.116;2023-05-11T15:13:51;98709.94;;;15.89;64.25
68988;BME280;56038;46.080;11.116;2023-05-11T15:18:53;98712.00;;;15.73;64.93
68988;BME280;56038;46.080;11.116;2023-05-11T15:23:54;98717.09;;;15.50;65.68
68988;BME280;56038;46.080;11.116;2023-05-11T15:28:57;98718.78;;;15.39;66.00
68988;BME280;56038;46.080;11.116;2023-05-11T15:34:01;98724.16;;;15.37;66.58
68988;BME280;56038;46.080;11.116;2023-05-11T15:39:04;98736.03;;;15.30;68.27
68988;BME280;56038;46.080;11.116;2023-05-11T15:44:07;98741.63;;;15.25;68.76
68988;BME280;56038;46.080;11.116;2023-05-11T15:49:08;98749.84;;;15.21;69.75
68988;BME280;56038;46.080;11.116;2023-05-11T15:54:10;98755.09;;;15.08;69.70
68988;BME280;56038;46.080;11.116;2023-05-11T15:59:13;98749.44;;;15.02;70.51
68988;BME280;56038;46.080;11.116;2023-05-11T16:04:14;98755.28;;;14.80;71.33
68988;BME280;56038;46.080;11.116;2023-05-11T16:09:16;98761.47;;;14.66;72.07
68988;BME280;56038;46.080;11.116;2023-05-11T16:14:19;98771.50;;;14.47;72.36
68988;BME280;56038;46.080;11.116;2023-05-11T16:19:21;98785.06;;;14.26;73.09
68988;BME280;56038;46.080;11.116;2023-05-11T16:24:22;98786.47;;;14.05;73.48
68988;BME280;56038;46.080;11.116;2023-05-11T16:29:25;98792.75;;;13.88;73.78
68988;BME280;56038;46.080;11.116;2023-05-11T16:34:27;98803.09;;;13.77;73.88
68988;BME280;56038;46.080;11.116;2023-05-11T16:39:28;98805.81;;;13.61;74.19
68988;BME280;56038;46.080;11.116;2023-05-11T16:44:31;98816.31;;;13.47;75.23
68988;BME280;56038;46.080;11.116;2023-05-11T16:49:33;98815.56;;;13.31;76.18
68988;BME280;56038;46.080;11.116;2023-05-11T16:54:35;98826.84;;;13.17;77.14
68988;BME280;56038;46.080;11.116;2023-05-11T16:59:38;98832.34;;;13.12;78.02
68988;BME280;56038;46.080;11.116;2023-05-11T17:04:39;98832.78;;;13.05;78.55
68988;BME280;56038;46.080;11.116;2023-05-11T17:09:42;98839.69;;;12.92;79.61
68988;BME280;56038;46.080;11.116;2023-05-11T17:14:47;98843.59;;;12.84;80.09
68988;BME280;56038;46.080;11.116;2023-05-11T17:19:49;98847.00;;;12.71;80.97
68988;BME280;56038;46.080;11.116;2023-05-11T17:30:50;98855.84;;;12.54;82.31
68988;BME280;56038;46.080;11.116;2023-05-11T17:35:52;98859.97;;;12.58;82.75
68988;BME280;56038;46.080;11.116;2023-05-11T17:40:54;98865.88;;;12.46;83.06
68988;BME280;56038;46.080;11.116;2023-05-11T17:45:58;98874.19;;;12.38;83.38
68988;BME280;56038;46.080;11.116;2023-05-11T17:51:02;98882.97;;;12.37;84.00
68988;BME280;56038;46.080;11.116;2023-05-11T17:56:04;98882.38;;;12.32;84.28
68988;BME280;56038;46.080;11.116;2023-05-11T18:01:11;98884.41;;;12.27;85.86
68988;BME280;56038;46.080;11.116;2023-05-11T18:06:22;98892.41;;;12.24;86.30
68988;BME280;56038;46.080;11.116;2023-05-11T18:11:36;98899.59;;;12.20;86.00
68988;BME280;56038;46.080;11.116;2023-05-11T18:16:39;98910.25;;;12.17;86.42
68988;BME280;56038;46.080;11.116;2023-05-11T18:21:41;98909.03;;;12.07;87.11
68988;BME280;56038;46.080;11.116;2023-05-11T18:26:42;98904.22;;;11.99;87.81
68988;BME280;56038;46.080;11.116;2023-05-11T18:31:46;98911.63;;;11.91;87.82
68988;BME280;56038;46.080;11.116;2023-05-11T18:36:47;98916.28;;;11.86;88.17
68988;BME280;56038;46.080;11.116;2023-05-11T18:41:50;98912.28;;;11.79;88.62
68988;BME280;56038;46.080;11.116;2023-05-11T18:46:53;98925.56;;;11.75;88.90
68988;BME280;56038;46.080;11.116;2023-05-11T18:51:55;98936.72;;;11.78;89.13
68988;BME280;56038;46.080;11.116;2023-05-11T18:56:57;98937.13;;;11.70;89.75
68988;BME280;56038;46.080;11.116;2023-05-11T19:02:00;98943.38;;;11.68;89.52
68988;BME280;56038;46.080;11.116;2023-05-11T19:07:02;98949.44;;;11.68;89.54
68988;BME280;56038;46.080;11.116;2023-05-11T19:12:05;98952.28;;;11.64;90.49
68988;BME280;56038;46.080;11.116;2023-05-11T19:17:09;98953.44;;;11.58;90.59
68988;BME280;56038;46.080;11.116;2023-05-11T19:22:11;98956.81;;;11.60;90.81
68988;BME280;56038;46.080;11.116;2023-05-11T19:27:13;98958.06;;;11.53;91.57
68988;BME280;56038;46.080;11.116;2023-05-11T19:32:16;98961.63;;;11.52;91.40
68988;BME280;56038;46.080;11.116;2023-05-11T19:37:18;98956.38;;;11.52;91.19
68988;BME280;56038;46.080;11.116;2023-05-11T19:42:20;98959.97;;;11.50;91.66
68988;BME280;56038;46.080;11.116;2023-05-11T19:47:24;98967.81;;;11.50;91.99
68988;BME280;56038;46.080;11.116;2023-05-11T19:52:26;98961.81;;;11.48;92.21
68988;BME280;56038;46.080;11.116;2023-05-11T19:57:28;98971.28;;;11.50;92.12
68988;BME280;56038;46.080;11.116;2023-05-11T20:02:34;98976.59;;;11.49;93.02
68988;BME280;56038;46.080;11.116;2023-05-11T20:07:36;98979.59;;;11.41;93.83
68988;BME280;56038;46.080;11.116;2023-05-11T20:12:38;98984.69;;;11.61;96.54
68988;BME280;56038;46.080;11.116;2023-05-11T20:17:41;98979.28;;;11.64;92.63
68988;BME280;56038;46.080;11.116;2023-05-11T20:22:43;98984.16;;;11.55;93.28
68988;BME280;56038;46.080;11.116;2023-05-11T20:27:45;98982.75;;;11.48;93.94
68988;BME280;56038;46.080;11.116;2023-05-11T20:32:48;98982.06;;;11.44;93.32
68988;BME280;56038;46.080;11.116;2023-05-11T20:37:49;98982.22;;;11.41;94.07
68988;BME280;56038;46.080;11.116;2023-05-11T20:42:51;98986.28;;;11.47;93.13
68988;BME280;56038;46.080;11.116;2023-05-11T20:47:54;98981.75;;;11.50;93.58
68988;BME280;56038;46.080;11.116;2023-05-11T20:52:56;98992.38;;;11.47;93.55
68988;BME280;56038;46.080;11.116;2023-05-11T20:57:58;98985.69;;;11.42;93.94
68988;BME280;56038;46.080;11.116;2023-05-11T21:03:01;98986.59;;;11.40;93.90
68988;BME280;56038;46.080;11.116;2023-05-11T21:08:03;98987.59;;;11.38;94.63
68988;BME280;56038;46.080;11.116;2023-05-11T21:13:05;98986.88;;;11.34;95.00
68988;BME280;56038;46.080;11.116;2023-05-11T21:18:08;98986.03;;;11.34;95.07
68988;BME280;56038;46.080;11.116;2023-05-11T21:23:10;98980.13;;;11.30;95.08
68988;BME280;56038;46.080;11.116;2023-05-11T21:28:13;98981.28;;;11.25;95.83
68988;BME280;56038;46.080;11.116;2023-05-11T21:33:16;98983.22;;;11.21;95.64
68988;BME280;56038;46.080;11.116;2023-05-11T21:38:18;98982.28;;;11.22;95.15
68988;BME280;56038;46.080;11.116;2023-05-11T21:43:19;98986.25;;;11.12;96.30
68988;BME280;56038;46.080;11.116;2023-05-11T21:48:23;98979.78;;;11.19;95.52
68988;BME280;56038;46.080;11.116;2023-05-11T21:53:24;98986.66;;;11.22;95.16
68988;BME280;56038;46.080;11.116;2023-05-11T21:58:26;98989.22;;;11.23;95.48
68988;BME280;56038;46.080;11.116;2023-05-11T22:03:29;98990.13;;;11.22;95.40
68988;BME280;56038;46.080;11.116;2023-05-11T22:08:31;98999.09;;;11.17;95.32
68988;BME280;56038;46.080;11.116;2023-05-11T22:13:33;98992.94;;;11.18;95.85
68988;BME280;56038;46.080;11.116;2023-05-11T22:18:36;99000.88;;;11.16;96.11
68988;BME280;56038;46.080;11.116;2023-05-11T22:23:37;99001.78;;;11.15;96.13
68988;BME280;56038;46.080;11.116;2023-05-11T22:28:39;99003.13;;;11.24;96.20
68988;BME280;56038;46.080;11.116;2023-05-11T22:33:42;99011.81;;;11.24;95.93
68988;BME280;56038;46.080;11.116;2023-05-11T22:38:44;99001.50;;;11.21;95.67
68988;BME280;56038;46.080;11.116;2023-05-11T22:43:45;98999.88;;;11.19;96.30
68988;BME280;56038;46.080;11.116;2023-05-11T22:48:49;99002.28;;;11.23;95.75
68988;BME280;56038;46.080;11.116;2023-05-11T22:53:51;99003.03;;;11.25;96.20
68988;BME280;56038;46.080;11.116;2023-05-11T22:58:52;99004.25;;;11.18;96.18
68988;BME280;56038;46.080;11.116;2023-05-11T23:03:57;98998.41;;;11.13;95.89
68988;BME280;56038;46.080;11.116;2023-05-11T23:08:59;99013.31;;;11.11;96.30
68988;BME280;56038;46.080;11.116;2023-05-11T23:14:01;99007.16;;;11.12;96.41
68988;BME280;56038;46.080;11.116;2023-05-11T23:19:04;99010.56;;;11.14;96.45
68988;BME280;56038;46.080;11.116;2023-05-11T23:24:06;99008.41;;;11.05;96.50
68988;BME280;56038;46.080;11.116;2023-05-11T23:29:08;99007.59;;;11.03;96.79
68988;BME280;56038;46.080;11.116;2023-05-11T23:34:11;99011.84;;;11.05;97.37
68988;BME280;56038;46.080;11.116;2023-05-11T23:39:12;99016.16;;;11.06;97.58
68988;BME280;56038;46.080;11.116;2023-05-11T23:44:14;99018.78;;;11.06;97.72
68988;BME280;56038;46.080;11.116;2023-05-11T23:49:18;99026.88;;;11.00;97.16
68988;BME280;56038;46.080;11.116;2023-05-11T23:54:19;99022.03;;;10.93;98.14
68988;BME280;56038;46.080;11.116;2023-05-11T23:59:21;99014.97;;;10.95;97.63
